Time;durP1;ratioP1;P1;durP2;ratioP2;P2;SDS_P1;SDS_P2;PMS_P1;PMS_P2;Temp;Humidity;BMP_temperature;BMP_pressure;BME280_temperature;BME280_humidity;BME280_pressure;Samples;Min_cycle;Max_cycle;Signal;HPM_P1;HPM_P2
2022/08/23 00:00:49;;;;;;;9.30;4.77;;;17.10;26.70;;;;;;5005646;28;20475;-66
2022/08/23 00:03:16;;;;;;;8.63;4.50;;;17.10;26.40;;;;;;5003188;28;20486;-66
2022/08/23 00:05:43;;;;;;;7.00;4.33;;;17.10;26.40;;;;;;5003151;28;20459;-66
2022/08/23 00:08:12;;;;;;;6.50;3.80;;;17.10;26.30;;;;;;5007364;28;20460;-66
2022/08/23 00:10:38;;;;;;;7.07;4.93;;;17.10;25.90;;;;;;5018186;28;20455;-66
2022/08/23 00:13:05;;;;;;;7.53;4.90;;;17.10;26.20;;;;;;5026563;28;20845;-66
2022/08/23 00:15:32;;;;;;;8.40;4.37;;;17.00;27.30;;;;;;5038134;28;20943;-66
2022/08/23 00:17:59;;;;;;;5.73;4.17;;;17.00;27.80;;;;;;5001643;28;20556;-66
2022/08/23 00:20:26;;;;;;;10.50;4.10;;;16.90;27.90;;;;;;5005505;28;20922;-66
2022/08/23 00:22:53;;;;;;;6.43;3.70;;;16.90;28.10;;;;;;5004973;28;20533;-66
2022/08/23 00:25:21;;;;;;;6.40;3.80;;;16.80;28.00;;;;;;5003648;28;21194;-66
2022/08/23 00:27:49;;;;;;;8.00;4.80;;;16.70;28.80;;;;;;5003216;28;20452;-66
2022/08/23 00:30:17;;;;;;;7.37;3.70;;;16.60;28.90;;;;;;5001580;28;20968;-66
2022/08/23 00:32:45;;;;;;;7.07;4.23;;;16.60;29.00;;;;;;4999198;28;20951;-66
2022/08/23 00:35:13;;;;;;;10.23;4.30;;;16.50;28.90;;;;;;5004837;28;20462;-66
2022/08/23 00:37:40;;;;;;;8.33;4.67;;;16.40;28.90;;;;;;5006956;28;20468;-66
2022/08/23 00:40:09;;;;;;;6.67;4.30;;;16.40;28.80;;;;;;5002955;28;20460;-66
2022/08/23 00:48:20;;;;;;;11.43;4.77;;;16.30;29.70;;;;;;5004004;28;20435;-66
2022/08/23 00:50:53;;;;;;;6.83;4.70;;;16.20;29.70;;;;;;5005351;28;20452;-66
2022/08/23 00:53:23;;;;;;;7.27;4.87;;;16.20;30.00;;;;;;5000540;28;20491;-66
2022/08/23 00:55:56;;;;;;;6.87;5.03;;;16.10;31.10;;;;;;5004105;28;20463;-66
2022/08/23 00:58:26;;;;;;;7.50;4.47;;;16.10;30.30;;;;;;5005140;28;20866;-66
2022/08/23 01:00:55;;;;;;;6.00;4.53;;;16.10;30.50;;;;;;5022863;28;20471;-66
2022/08/23 01:03:24;;;;;;;6.03;4.40;;;16.10;30.50;;;;;;5006761;28;20853;-66
2022/08/23 01:05:56;;;;;;;6.93;5.07;;;16.10;30.60;;;;;;5000834;28;20837;-66
2022/08/23 01:08:25;;;;;;;8.57;5.90;;;16.10;30.40;;;;;;5005126;28;20487;-66
2022/08/23 01:10:56;;;;;;;7.50;4.80;;;16.10;30.50;;;;;;5004545;28;20464;-66
2022/08/23 01:13:29;;;;;;;8.90;5.37;;;16.10;30.30;;;;;;5019122;28;20484;-66
2022/08/23 01:16:02;;;;;;;7.43;4.53;;;16.10;30.20;;;;;;5006856;28;20668;-66
2022/08/23 01:18:30;;;;;;;13.80;6.17;;;16.10;30.30;;;;;;5008058;28;20865;-66
2022/08/23 01:21:04;;;;;;;12.73;6.70;;;16.10;30.10;;;;;;5008378;28;20466;-66
2022/08/23 01:23:39;;;;;;;8.47;6.30;;;16.10;29.70;;;;;;5002462;28;20524;-66
2022/08/23 01:26:07;;;;;;;6.00;4.50;;;16.10;29.70;;;;;;5003892;28;20460;-66
2022/08/23 01:28:34;;;;;;;8.60;4.70;;;16.20;29.30;;;;;;5008697;28;20471;-66
2022/08/23 01:31:01;;;;;;;7.00;4.73;;;16.20;30.00;;;;;;5005311;28;20508;-66
2022/08/23 01:33:28;;;;;;;9.17;5.00;;;16.10;29.60;;;;;;5004764;28;20579;-66
2022/08/23 01:35:57;;;;;;;7.20;5.10;;;16.10;30.20;;;;;;5007199;28;20467;-67
2022/08/23 01:38:25;;;;;;;7.90;5.60;;;16.10;30.00;;;;;;5008327;28;20986;-67
2022/08/23 01:40:54;;;;;;;9.17;5.17;;;16.10;30.20;;;;;;5007390;28;20463;-67
2022/08/23 01:43:21;;;;;;;7.00;5.40;;;16.10;30.30;;;;;;5006890;28;20552;-67
2022/08/23 01:45:50;;;;;;;8.77;5.20;;;16.00;30.10;;;;;;5001896;28;20974;-67
2022/08/23 01:48:18;;;;;;;10.57;6.20;;;16.10;30.00;;;;;;5003432;28;20452;-66
2022/08/23 01:50:46;;;;;;;7.60;5.37;;;16.10;30.00;;;;;;5001831;28;21040;-66
2022/08/23 01:53:13;;;;;;;7.13;5.10;;;16.00;30.80;;;;;;5007326;28;20478;-67
2022/08/23 01:55:41;;;;;;;8.83;6.00;;;16.00;31.00;;;;;;5028397;28;20461;-66
2022/08/23 01:58:10;;;;;;;8.53;5.40;;;16.00;30.50;;;;;;5006507;28;20517;-66
2022/08/23 02:00:40;;;;;;;6.97;5.00;;;16.00;31.40;;;;;;5007811;28;20490;-66
2022/08/23 02:03:11;;;;;;;7.90;5.50;;;15.90;30.90;;;;;;5001844;28;20999;-66
2022/08/23 02:05:38;;;;;;;8.67;5.20;;;15.90;30.80;;;;;;5006072;28;20524;-66
2022/08/23 02:10:51;;;;;;;9.93;5.40;;;15.90;30.80;;;;;;5004775;28;20447;-66
2022/08/23 02:13:19;;;;;;;9.23;5.17;;;15.80;30.90;;;;;;5006447;28;21007;-66
2022/08/23 02:15:49;;;;;;;8.10;5.87;;;15.80;30.90;;;;;;5007246;28;21055;-66
2022/08/23 02:18:18;;;;;;;7.50;6.10;;;15.80;31.10;;;;;;5010662;28;20529;-66
2022/08/23 02:20:45;;;;;;;7.63;6.13;;;15.80;31.00;;;;;;5003995;28;20460;-66
2022/08/23 02:23:12;;;;;;;12.67;5.20;;;15.80;31.00;;;;;;5005056;28;20476;-66
2022/08/23 02:25:40;;;;;;;7.23;5.63;;;15.80;31.10;;;;;;5032634;28;20460;-66
2022/08/23 02:28:07;;;;;;;9.73;6.90;;;15.80;31.00;;;;;;5006765;28;20509;-65
2022/08/23 02:30:35;;;;;;;7.60;5.63;;;15.80;31.00;;;;;;5006830;28;20483;-66
2022/08/23 02:33:02;;;;;;;8.13;5.23;;;15.80;31.10;;;;;;5004796;28;20483;-66
2022/08/23 02:35:32;;;;;;;7.20;5.60;;;15.80;31.00;;;;;;5004191;28;20480;-66
2022/08/23 02:38:02;;;;;;;9.03;5.50;;;15.80;31.10;;;;;;5005375;28;20464;-66
2022/08/23 02:40:29;;;;;;;8.57;6.57;;;15.80;31.00;;;;;;5006430;28;20471;-66
2022/08/23 02:42:55;;;;;;;12.60;6.60;;;15.80;31.00;;;;;;5014802;28;20475;-66
2022/08/23 02:45:22;;;;;;;12.93;6.60;;;15.80;31.00;;;;;;5006551;28;20456;-66
2022/08/23 02:47:51;;;;;;;8.50;6.00;;;15.70;31.00;;;;;;5005272;28;20587;-66
2022/08/23 02:50:20;;;;;;;8.00;5.93;;;15.70;31.30;;;;;;5001509;28;20952;-66
2022/08/23 02:52:47;;;;;;;8.70;5.63;;;15.60;31.20;;;;;;5014164;28;20998;-66
2022/08/23 02:55:14;;;;;;;9.93;5.57;;;15.60;31.20;;;;;;5003201;28;20484;-66
2022/08/23 02:57:41;;;;;;;9.40;6.23;;;15.60;31.00;;;;;;5008065;28;20467;-66
2022/08/23 03:00:10;;;;;;;8.10;5.43;;;15.60;30.90;;;;;;5006740;28;20944;-66
2022/08/23 03:02:37;;;;;;;9.03;5.70;;;15.60;30.90;;;;;;5004811;28;20479;-66
2022/08/23 03:05:08;;;;;;;7.90;6.20;;;15.60;31.00;;;;;;5005850;28;20677;-66
2022/08/23 03:07:35;;;;;;;8.10;5.70;;;15.60;31.10;;;;;;5006310;28;20459;-66
2022/08/23 03:10:03;;;;;;;9.20;6.30;;;15.60;31.10;;;;;;5004843;28;21155;-66
2022/08/23 03:12:29;;;;;;;11.07;6.30;;;15.60;31.20;;;;;;5009181;28;20605;-66
2022/08/23 03:14:57;;;;;;;10.67;5.67;;;15.50;31.40;;;;;;5015913;28;20478;-66
2022/08/23 03:17:24;;;;;;;8.00;5.80;;;15.50;31.40;;;;;;5006498;28;20468;-66
2022/08/23 03:19:51;;;;;;;10.20;5.80;;;15.50;31.50;;;;;;5006267;28;20456;-66
2022/08/23 03:22:21;;;;;;;8.57;6.30;;;15.50;31.40;;;;;;5004175;28;21138;-66
2022/08/23 03:24:48;;;;;;;7.73;6.00;;;15.40;31.50;;;;;;5006467;28;20457;-66
2022/08/23 03:27:15;;;;;;;8.80;6.10;;;15.40;31.90;;;;;;5019018;28;21053;-66
2022/08/23 03:29:42;;;;;;;8.60;6.13;;;15.40;32.70;;;;;;5005505;28;20905;-66
2022/08/23 03:32:09;;;;;;;8.53;7.07;;;15.30;32.40;;;;;;5001528;28;20632;-66
2022/08/23 03:34:36;;;;;;;7.63;6.77;;;15.30;32.50;;;;;;5003815;28;20576;-66
2022/08/23 03:37:03;;;;;;;12.27;7.10;;;15.20;32.50;;;;;;5006389;28;20555;-66
2022/08/23 03:39:31;;;;;;;9.53;7.27;;;15.20;32.70;;;;;;5005765;28;20462;-66
2022/08/23 03:41:58;;;;;;;9.67;6.43;;;15.20;32.50;;;;;;5008010;28;20467;-66
2022/08/23 03:44:25;;;;;;;9.90;6.90;;;15.10;33.10;;;;;;5001087;28;20464;-66
2022/08/23 03:46:51;;;;;;;8.70;6.13;;;15.00;32.80;;;;;;5005677;28;20456;-66
2022/08/23 03:49:18;;;;;;;10.30;7.70;;;15.10;32.80;;;;;;5006063;28;20452;-66
2022/08/23 03:51:45;;;;;;;9.03;7.27;;;15.10;32.80;;;;;;5012515;28;21023;-61
2022/08/23 03:54:12;;;;;;;9.77;8.00;;;15.00;32.80;;;;;;5006375;28;20480;-63
2022/08/23 03:56:51;;;;;;;9.27;6.80;;;15.00;32.80;;;;;;5003338;28;20455;-67
2022/08/23 03:59:18;;;;;;;10.30;7.17;;;15.10;33.20;;;;;;5004799;28;21063;-67
2022/08/23 04:01:44;;;;;;;11.23;7.90;;;15.00;33.20;;;;;;4993991;28;20488;-67
2022/08/23 04:04:11;;;;;;;11.73;6.67;;;15.00;33.20;;;;;;4996528;28;20488;-67
2022/08/23 04:06:38;;;;;;;8.90;6.90;;;15.00;33.00;;;;;;5002715;28;20467;-69
2022/08/23 04:09:05;;;;;;;8.43;7.17;;;15.00;33.10;;;;;;5001526;28;20468;-68
2022/08/23 04:11:31;;;;;;;10.00;7.30;;;15.10;33.00;;;;;;5004419;28;20455;-67
2022/08/23 04:13:59;;;;;;;11.60;7.27;;;15.00;32.90;;;;;;5034453;28;20480;-68
2022/08/23 04:16:27;;;;;;;12.90;7.60;;;15.00;32.90;;;;;;5064762;28;20456;-68
2022/08/23 04:18:54;;;;;;;9.53;6.93;;;15.00;33.00;;;;;;5017756;28;20464;-69
2022/08/23 04:21:22;;;;;;;12.00;7.90;;;15.00;33.10;;;;;;5007899;28;20456;-66
2022/08/23 04:23:50;;;;;;;12.83;7.07;;;14.90;33.30;;;;;;5004949;28;20483;-69
2022/08/23 04:26:17;;;;;;;8.20;7.10;;;14.90;33.30;;;;;;5007997;28;20461;-69
2022/08/23 04:28:43;;;;;;;8.53;6.13;;;14.90;33.40;;;;;;4995052;28;20460;-69
2022/08/23 04:31:12;;;;;;;8.73;6.73;;;14.90;33.40;;;;;;5000817;28;20488;-65
2022/08/23 04:33:38;;;;;;;9.20;7.27;;;14.90;33.60;;;;;;4999528;28;20484;-68
2022/08/23 04:36:06;;;;;;;9.47;6.90;;;14.80;33.60;;;;;;4998231;28;20484;-66
2022/08/23 04:38:32;;;;;;;14.07;7.10;;;14.90;33.60;;;;;;5001386;28;20464;-65
2022/08/23 04:43:44;;;;;;;9.37;7.30;;;14.90;33.70;;;;;;4997104;28;20836;-67
2022/08/23 04:46:14;;;;;;;9.80;7.60;;;14.80;34.00;;;;;;4997680;28;20974;-67
2022/08/23 04:48:41;;;;;;;10.43;7.67;;;14.80;34.00;;;;;;5003003;28;21156;-68
2022/08/23 04:51:08;;;;;;;9.13;7.10;;;14.80;34.20;;;;;;5005933;28;20493;-69
2022/08/23 04:53:35;;;;;;;9.27;6.33;;;14.90;33.90;;;;;;4997043;28;20603;-68
2022/08/23 04:56:02;;;;;;;9.17;6.80;;;15.00;33.60;;;;;;5005188;28;20487;-68
2022/08/23 04:58:30;;;;;;;10.07;6.93;;;15.10;33.60;;;;;;5002124;28;20472;-68
2022/08/23 05:00:59;;;;;;;10.33;7.07;;;15.10;33.70;;;;;;5008960;28;20844;-67
2022/08/23 05:03:28;;;;;;;10.70;6.63;;;15.10;33.80;;;;;;5047692;28;20499;-67
2022/08/23 05:05:56;;;;;;;10.63;6.90;;;15.20;34.10;;;;;;5048261;28;20448;-69
2022/08/23 05:08:23;;;;;;;7.10;5.60;;;15.20;34.30;;;;;;5049802;28;20513;-61
2022/08/23 05:10:51;;;;;;;9.27;6.40;;;15.40;34.60;;;;;;5006138;28;20463;-62
2022/08/23 05:13:17;;;;;;;9.93;6.00;;;15.80;34.10;;;;;;5002615;28;20512;-65
2022/08/23 05:15:44;;;;;;;8.23;5.30;;;16.10;33.80;;;;;;5006551;28;20471;-61
2022/08/23 05:18:11;;;;;;;9.63;5.90;;;16.40;33.30;;;;;;5007186;28;20461;-61
2022/08/23 05:20:40;;;;;;;8.57;5.03;;;16.60;32.60;;;;;;5006837;28;20464;-61
2022/08/23 05:23:06;;;;;;;8.10;5.27;;;16.80;31.50;;;;;;5003642;28;20856;-64
2022/08/23 05:25:51;;;;;;;8.03;5.47;;;17.00;30.50;;;;;;5007032;28;20976;-65
2022/08/23 05:28:20;;;;;;;8.97;5.63;;;17.30;29.60;;;;;;5031778;28;20460;-63
2022/08/23 05:30:55;;;;;;;8.10;5.13;;;17.80;28.00;;;;;;5002540;28;20499;-63
2022/08/23 05:33:22;;;;;;;9.90;5.37;;;18.10;27.10;;;;;;5007858;28;20479;-62
2022/08/23 05:35:51;;;;;;;7.90;5.00;;;18.50;25.90;;;;;;5008600;28;20528;-61
2022/08/23 05:38:18;;;;;;;9.13;4.80;;;18.80;25.10;;;;;;5007101;28;20486;-64
2022/08/23 05:40:48;;;;;;;8.10;4.70;;;19.40;23.90;;;;;;5006635;28;20464;-64
2022/08/23 05:43:15;;;;;;;12.20;5.10;;;20.30;22.00;;;;;;5028961;28;20488;-64
2022/08/23 05:45:41;;;;;;;8.30;5.67;;;21.30;19.50;;;;;;5008206;28;20452;-64
2022/08/23 05:48:08;;;;;;;8.17;5.70;;;22.40;17.30;;;;;;5059913;28;20501;-64
2022/08/23 05:50:36;;;;;;;8.57;5.17;;;23.50;15.10;;;;;;5045713;28;20855;-65
2022/08/23 05:53:04;;;;;;;6.23;4.40;;;24.60;13.30;;;;;;5006467;28;20529;-64
2022/08/23 05:55:31;;;;;;;7.70;5.40;;;25.80;10.20;;;;;;5008384;28;20484;-63
2022/08/23 05:57:58;;;;;;;7.60;5.30;;;27.00;8.50;;;;;;5008094;28;20464;-63
2022/08/23 06:00:26;;;;;;;7.07;4.30;;;28.10;6.70;;;;;;5006288;28;20467;-63
2022/08/23 06:02:53;;;;;;;7.10;4.80;;;29.20;4.60;;;;;;5007231;28;20547;-63
2022/08/23 06:05:20;;;;;;;9.53;4.40;;;30.20;3.10;;;;;;5003048;28;20458;-67
2022/08/23 06:07:48;;;;;;;6.03;4.50;;;31.10;1.50;;;;;;5000413;28;20545;-66
2022/08/23 06:10:19;;;;;;;6.93;4.73;;;32.00;1.00;;;;;;5006516;28;20467;-67
2022/08/23 06:12:46;;;;;;;9.50;5.20;;;32.90;1.00;;;;;;5008616;28;20476;-62
2022/08/23 06:15:13;;;;;;;6.10;4.43;;;33.60;1.00;;;;;;5002805;28;20697;-68
2022/08/23 06:17:40;;;;;;;7.37;4.17;;;34.50;1.00;;;;;;5003610;28;20483;-67
2022/08/23 06:20:09;;;;;;;6.60;4.77;;;35.20;1.00;;;;;;5002724;28;20456;-68
2022/08/23 06:22:35;;;;;;;6.80;4.40;;;36.00;1.00;;;;;;5026297;28;20479;-60
2022/08/23 06:25:03;;;;;;;6.77;4.70;;;36.70;1.00;;;;;;5014687;28;20463;-60
2022/08/23 06:27:31;;;;;;;6.33;4.20;;;37.30;1.00;;;;;;5003057;28;20873;-60
2022/08/23 06:29:58;;;;;;;6.10;4.90;;;38.00;1.00;;;;;;5006441;28;20959;-60
2022/08/23 06:32:24;;;;;;;5.90;4.07;;;38.60;1.00;;;;;;5010772;28;20464;-60
2022/08/23 06:34:51;;;;;;;5.97;3.73;;;39.20;1.00;;;;;;5005063;28;21090;-60
2022/08/23 06:37:18;;;;;;;5.80;4.00;;;39.70;1.00;;;;;;5004251;28;20460;-60
2022/08/23 06:39:45;;;;;;;6.97;4.73;;;40.30;1.00;;;;;;5009509;28;20467;-60
2022/08/23 06:42:13;;;;;;;5.97;4.07;;;40.90;1.00;;;;;;5038232;28;20483;-60
2022/08/23 06:44:42;;;;;;;5.20;4.13;;;41.50;1.00;;;;;;5003412;28;20576;-60
2022/08/23 06:47:10;;;;;;;6.20;3.90;;;42.10;1.00;;;;;;5007606;28;20517;-59
2022/08/23 06:49:36;;;;;;;5.73;3.70;;;42.50;1.00;;;;;;5004153;28;20471;-60
2022/08/23 06:52:04;;;;;;;5.77;4.20;;;43.10;1.00;;;;;;5007948;28;20460;-62
2022/08/23 06:54:33;;;;;;;5.87;4.50;;;43.50;1.00;;;;;;5011652;28;20456;-65
2022/08/23 06:57:01;;;;;;;6.03;4.07;;;43.70;1.00;;;;;;5036902;28;20519;-63
2022/08/23 06:59:30;;;;;;;5.83;3.90;;;44.00;1.00;;;;;;5004400;28;20464;-62
2022/08/23 07:01:59;;;;;;;4.70;3.70;;;44.40;1.00;;;;;;5006308;28;21029;-72
2022/08/23 07:04:28;;;;;;;5.50;3.63;;;44.80;1.00;;;;;;5007671;28;20466;-72
2022/08/23 07:06:55;;;;;;;6.23;3.37;;;45.10;1.00;;;;;;5007108;28;20944;-71
2022/08/23 07:09:23;;;;;;;6.00;3.40;;;45.50;1.00;;;;;;5026766;28;21107;-70
2022/08/23 07:11:50;;;;;;;7.20;3.50;;;45.90;1.00;;;;;;5005740;28;20476;-70
2022/08/23 07:14:19;;;;;;;6.03;3.50;;;46.30;1.00;;;;;;5039589;28;20468;-70
2022/08/23 07:16:48;;;;;;;7.07;3.97;;;46.60;1.00;;;;;;5041675;28;20498;-71
2022/08/23 07:19:18;;;;;;;6.00;3.50;;;47.10;1.00;;;;;;5035887;28;20988;-70
2022/08/23 07:21:45;;;;;;;5.40;3.80;;;47.50;1.00;;;;;;5023421;28;20452;-69
2022/08/23 07:24:13;;;;;;;6.67;3.30;;;47.80;1.00;;;;;;5004848;28;20483;-70
2022/08/23 07:26:41;;;;;;;5.90;3.70;;;47.90;1.00;;;;;;5002569;28;20460;-72
2022/08/23 07:29:10;;;;;;;5.83;3.90;;;48.20;1.00;;;;;;5007361;28;20452;-70
2022/08/23 07:31:40;;;;;;;5.80;3.63;;;48.40;1.00;;;;;;5047495;28;20632;-73
2022/08/23 07:34:07;;;;;;;5.20;3.20;;;48.70;1.00;;;;;;4999501;28;20484;-71
2022/08/23 07:36:37;;;;;;;4.70;3.30;;;49.00;1.00;;;;;;4997586;28;20904;-73
2022/08/23 07:39:06;;;;;;;6.00;3.60;;;49.10;1.00;;;;;;5001616;28;20462;-72
2022/08/23 07:41:34;;;;;;;5.23;3.17;;;49.40;1.00;;;;;;5041015;28;20967;-74
2022/08/23 07:44:04;;;;;;;4.43;2.87;;;49.80;1.00;;;;;;4999814;28;20526;-74
2022/08/23 07:46:32;;;;;;;4.57;2.80;;;50.30;1.00;;;;;;5002747;28;20452;-68
2022/08/23 07:49:01;;;;;;;6.47;3.00;;;50.90;1.00;;;;;;5004868;28;20494;-72
2022/08/23 07:51:29;;;;;;;4.43;2.53;;;50.70;1.00;;;;;;5006652;28;20478;-68
2022/08/23 07:53:58;;;;;;;6.07;3.20;;;50.50;1.00;;;;;;5004084;28;20477;-69
2022/08/23 07:56:24;;;;;;;4.03;2.67;;;50.90;1.00;;;;;;5007014;28;21022;-69
2022/08/23 07:58:51;;;;;;;5.07;3.13;;;51.40;1.00;;;;;;5039164;28;20520;-62
2022/08/23 08:01:21;;;;;;;6.87;2.90;;;51.30;1.00;;;;;;5036811;28;20472;-62
2022/08/23 08:03:51;;;;;;;5.20;2.97;;;51.30;1.00;;;;;;5038888;22;20484;-66
2022/08/23 08:06:21;;;;;;;6.00;2.87;;;51.30;1.00;;;;;;5081183;28;21046;-61
2022/08/23 08:08:48;;;;;;;5.17;3.07;;;51.20;1.00;;;;;;5083599;28;20850;-62
2022/08/23 08:11:19;;;;;;;6.10;3.03;;;51.50;1.00;;;;;;5085341;28;20451;-63
2022/08/23 08:13:48;;;;;;;5.70;2.50;;;51.50;1.00;;;;;;5086313;28;20479;-65
2022/08/23 08:16:22;;;;;;;4.30;2.70;;;51.30;1.00;;;;;;5086211;28;20478;-62
2022/08/23 08:18:50;;;;;;;5.50;2.60;;;51.50;1.00;;;;;;5087830;28;20588;-62
2022/08/23 08:21:18;;;;;;;6.10;2.50;;;51.50;1.00;;;;;;5083625;28;20455;-63
2022/08/23 08:23:45;;;;;;;5.27;3.00;;;52.00;1.00;;;;;;5079976;28;21053;-62
2022/08/23 08:26:12;;;;;;;4.10;2.40;;;52.30;1.00;;;;;;5085237;28;20476;-62
2022/08/23 08:28:40;;;;;;;5.50;2.40;;;52.30;1.00;;;;;;5088196;28;20460;-62
2022/08/23 08:31:07;;;;;;;4.47;2.03;;;52.40;1.00;;;;;;5093625;28;20463;-62
2022/08/23 08:33:34;;;;;;;3.87;2.77;;;52.80;1.00;;;;;;5091490;28;20485;-63
2022/08/23 08:36:02;;;;;;;4.03;2.33;;;52.90;1.00;;;;;;5085726;28;20506;-63
2022/08/23 08:38:29;;;;;;;4.00;2.30;;;52.90;1.00;;;;;;5083000;28;20456;-62
2022/08/23 08:41:03;;;;;;;5.90;2.50;;;52.80;1.00;;;;;;5089964;28;20831;-63
2022/08/23 08:43:40;;;;;;;5.33;2.67;;;52.50;1.00;;;;;;5089097;28;20479;-64
2022/08/23 08:46:19;;;;;;;5.13;2.60;;;52.60;1.00;;;;;;5091742;28;21220;-62
2022/08/23 08:48:52;;;;;;;5.10;2.43;;;52.80;1.00;;;;;;5084075;28;20544;-63
2022/08/23 08:51:34;;;;;;;4.70;2.37;;;53.10;1.00;;;;;;5090734;28;20793;-61
2022/08/23 08:54:07;;;;;;;5.57;2.37;;;53.60;1.00;;;;;;5079215;28;21179;-62
2022/08/23 08:56:38;;;;;;;6.83;2.40;;;53.50;1.00;;;;;;5081498;28;21143;-62
2022/08/23 08:59:09;;;;;;;4.70;2.60;;;53.40;1.00;;;;;;5089831;28;20494;-63
2022/08/23 09:01:38;;;;;;;4.50;2.10;;;53.50;1.00;;;;;;5091375;27;20691;-63
2022/08/23 09:04:06;;;;;;;4.70;2.40;;;53.80;1.00;;;;;;5099426;28;20499;-65
2022/08/23 09:06:41;;;;;;;5.23;2.40;;;54.10;1.00;;;;;;5107648;28;20474;-64
2022/08/23 09:09:20;;;;;;;6.70;2.20;;;54.20;1.00;;;;;;5110755;28;20450;-64
2022/08/23 09:11:58;;;;;;;4.00;2.00;;;54.50;1.00;;;;;;5103894;28;20960;-65
2022/08/23 09:14:46;;;;;;;3.97;2.30;;;54.60;1.00;;;;;;5111575;28;20559;-64
2022/08/23 09:17:21;;;;;;;4.90;2.20;;;54.80;1.00;;;;;;5103496;28;20460;-68
2022/08/23 09:19:52;;;;;;;4.10;2.10;;;55.40;1.00;;;;;;5106218;28;20450;-68
2022/08/23 09:22:26;;;;;;;3.73;2.07;;;55.60;1.00;;;;;;5111693;28;20946;-68
2022/08/23 09:24:53;;;;;;;4.00;2.13;;;55.80;1.00;;;;;;5111661;28;20451;-66
2022/08/23 09:27:20;;;;;;;5.33;2.50;;;56.20;1.00;;;;;;5110577;27;20478;-63
2022/08/23 09:29:55;;;;;;;5.03;2.23;;;56.40;1.00;;;;;;5102493;28;20535;-66
2022/08/23 09:32:35;;;;;;;3.90;1.90;;;56.20;1.00;;;;;;5113082;27;20231;-65
2022/08/23 09:35:16;;;;;;;4.43;2.10;;;55.20;1.00;;;;;;5111692;28;21114;-65
2022/08/23 09:37:50;;;;;;;6.17;2.60;;;53.50;1.00;;;;;;5104136;28;20455;-68
2022/08/23 09:40:23;;;;;;;5.93;2.60;;;53.60;1.00;;;;;;5102850;28;20826;-64
2022/08/23 09:43:04;;;;;;;3.70;2.10;;;53.90;1.00;;;;;;5108193;28;20520;-65
2022/08/23 09:45:34;;;;;;;6.60;2.17;;;53.80;1.00;;;;;;5101672;28;20462;-64
2022/08/23 09:48:03;;;;;;;5.10;2.03;;;53.80;1.00;;;;;;5103194;27;20485;-64
2022/08/23 09:50:34;;;;;;;7.00;2.20;;;53.90;1.00;;;;;;5106206;28;20470;-62
2022/08/23 09:53:05;;;;;;;7.10;2.07;;;54.10;1.00;;;;;;5098899;28;20475;-68
2022/08/23 09:55:34;;;;;;;4.10;2.20;;;54.60;1.00;;;;;;5104158;28;20459;-63
2022/08/23 09:58:03;;;;;;;6.43;2.63;;;54.60;1.00;;;;;;5101778;28;20455;-65
2022/08/23 10:00:33;;;;;;;4.13;1.77;;;54.30;1.00;;;;;;5102623;28;20466;-66
2022/08/23 10:03:24;;;;;;;3.77;1.67;;;54.40;1.00;;;;;;5102172;27;20486;-64
2022/08/23 10:05:52;;;;;;;4.50;1.70;;;54.60;1.00;;;;;;5102638;27;20463;-63
2022/08/23 10:08:24;;;;;;;4.13;2.40;;;54.80;1.00;;;;;;5102354;28;20462;-62
2022/08/23 10:10:54;;;;;;;4.40;2.10;;;54.90;1.00;;;;;;5102535;27;20477;-63
2022/08/23 10:13:21;;;;;;;6.23;2.10;;;54.80;1.00;;;;;;5104926;28;20472;-62
2022/08/23 10:16:02;;;;;;;4.63;2.00;;;54.40;1.00;;;;;;5104050;28;20463;-64
2022/08/23 10:18:49;;;;;;;4.40;1.87;;;54.50;1.00;;;;;;5101955;28;20980;-62
2022/08/23 10:21:21;;;;;;;5.20;2.00;;;54.90;1.00;;;;;;5101642;28;20887;-63
2022/08/23 10:24:07;;;;;;;5.47;1.73;;;54.90;1.00;;;;;;5104913;27;20483;-63
2022/08/23 10:26:39;;;;;;;4.13;1.90;;;55.00;1.00;;;;;;5103555;28;20554;-65
2022/08/23 10:32:09;;;;;;;4.53;1.80;;;55.30;1.00;;;;;;5100610;27;20473;-67
2022/08/23 10:34:50;;;;;;;4.73;1.90;;;55.50;1.00;;;;;;5106861;28;20482;-64
2022/08/23 10:37:32;;;;;;;4.03;1.40;;;55.20;1.00;;;;;;5102095;28;20456;-64
2022/08/23 10:40:04;;;;;;;4.27;1.63;;;55.30;1.00;;;;;;5101981;28;20459;-64
2022/08/23 10:42:42;;;;;;;3.70;1.60;;;55.10;1.00;;;;;;5104194;28;20455;-64
2022/08/23 10:45:25;;;;;;;4.77;1.80;;;54.90;1.00;;;;;;5102599;28;20462;-64
2022/08/23 10:48:02;;;;;;;4.57;1.53;;;53.30;1.00;;;;;;5101689;28;20477;-77
2022/08/23 10:50:41;;;;;;;4.80;1.40;;;50.90;1.00;;;;;;5103122;28;20462;-74
2022/08/23 10:53:11;;;;;;;3.60;1.50;;;48.70;1.00;;;;;;5101732;28;20781;-74
2022/08/23 10:55:53;;;;;;;4.47;1.90;;;46.70;1.00;;;;;;5105036;28;20539;-72
2022/08/23 10:58:24;;;;;;;4.70;1.63;;;44.90;1.00;;;;;;5104766;28;21042;-63
2022/08/23 11:00:52;;;;;;;6.10;2.30;;;43.10;1.00;;;;;;5104247;28;20471;-71
2022/08/23 11:03:25;;;;;;;4.50;2.07;;;41.90;1.00;;;;;;5104187;27;20503;-70
2022/08/23 11:06:25;;;;;;;5.90;2.00;;;40.60;1.00;;;;;;5100955;28;21228;-75
2022/08/23 11:08:59;;;;;;;5.93;1.87;;;39.30;1.00;;;;;;5100898;28;20451;-71
2022/08/23 11:11:39;;;;;;;3.50;1.73;;;38.30;1.00;;;;;;5103649;28;20458;-74
2022/08/23 11:14:08;;;;;;;4.47;2.17;;;37.50;1.00;;;;;;5102799;28;20479;-72
2022/08/23 11:16:35;;;;;;;6.83;2.30;;;36.70;1.00;;;;;;5104473;28;21180;-68
2022/08/23 11:19:03;;;;;;;5.27;2.17;;;36.00;1.00;;;;;;5103240;27;20463;-73
2022/08/23 11:21:49;;;;;;;4.40;1.90;;;35.40;1.00;;;;;;5101671;28;20467;-71
2022/08/23 11:24:49;;;;;;;7.90;2.13;;;35.00;1.00;;;;;;5099316;27;20482;-68
2022/08/23 11:27:27;;;;;;;4.90;1.93;;;34.50;1.00;;;;;;5100131;27;20471;-65
2022/08/23 11:29:54;;;;;;;3.90;2.17;;;34.10;1.00;;;;;;5101974;28;20470;-73
2022/08/23 11:32:32;;;;;;;4.67;2.20;;;33.70;1.00;;;;;;5102982;27;20472;-67
2022/08/23 11:35:18;;;;;;;8.00;2.50;;;33.40;1.00;;;;;;5103477;28;20975;-66
2022/08/23 11:37:53;;;;;;;4.30;1.93;;;32.90;1.00;;;;;;5095382;28;20476;-69
2022/08/23 11:40:57;;;;;;;4.80;1.97;;;32.30;1.00;;;;;;5101524;28;20455;-70
2022/08/23 11:43:29;;;;;;;5.63;2.23;;;32.00;1.00;;;;;;5102708;28;20480;-66
2022/08/23 11:46:33;;;;;;;11.80;2.23;;;31.70;1.00;;;;;;5106020;27;20467;-63
2022/08/23 11:49:42;;;;;;;5.30;2.30;;;31.50;1.00;;;;;;5095572;27;20460;-67
2022/08/23 11:52:32;;;;;;;5.57;2.30;;;31.30;1.00;;;;;;5060989;28;20460;-65
2022/08/23 11:55:22;;;;;;;4.70;2.20;;;31.00;1.00;;;;;;5084826;28;20460;-62
2022/08/23 11:57:57;;;;;;;5.67;2.43;;;30.70;1.00;;;;;;5100311;28;20500;-66
2022/08/23 12:00:26;;;;;;;5.93;2.63;;;30.30;1.00;;;;;;5099860;28;20463;-62
2022/08/23 12:03:05;;;;;;;5.73;2.43;;;30.20;1.00;;;;;;5101809;28;20479;-63
2022/08/23 12:06:08;;;;;;;5.13;2.30;;;30.00;1.00;;;;;;5097798;28;20533;-67
2022/08/23 12:08:52;;;;;;;5.40;2.73;;;29.70;1.00;;;;;;5105725;28;20475;-67
2022/08/23 12:11:22;;;;;;;5.53;2.47;;;29.70;1.00;;;;;;5103682;28;20459;-67
2022/08/23 12:13:56;;;;;;;5.73;2.30;;;29.70;1.00;;;;;;5101735;28;20480;-67
2022/08/23 12:16:35;;;;;;;4.57;2.30;;;29.70;1.00;;;;;;5099889;28;20459;-67
2022/08/23 12:19:08;;;;;;;5.17;2.43;;;29.70;1.00;;;;;;5097651;28;20827;-67
2022/08/23 12:21:44;;;;;;;9.00;2.47;;;29.50;1.00;;;;;;5098567;28;20455;-67
2022/08/23 12:24:22;;;;;;;5.13;2.17;;;29.30;1.00;;;;;;5101070;28;21060;-67
2022/08/23 12:26:59;;;;;;;6.00;2.30;;;29.10;1.00;;;;;;5097855;28;20479;-67
2022/08/23 12:29:36;;;;;;;4.17;2.30;;;28.90;1.00;;;;;;5096554;28;20455;-66
2022/08/23 12:32:11;;;;;;;4.40;2.30;;;28.80;1.00;;;;;;5096844;28;20991;-67
2022/08/23 12:34:49;;;;;;;7.50;2.47;;;28.70;1.00;;;;;;5100471;28;21230;-67
2022/08/23 12:37:26;;;;;;;5.40;2.50;;;28.50;1.00;;;;;;5098675;28;20455;-61
2022/08/23 12:39:56;;;;;;;5.13;2.60;;;28.40;1.00;;;;;;5098877;28;20455;-59
2022/08/23 12:42:28;;;;;;;6.30;2.37;;;28.50;1.00;;;;;;5100650;28;20963;-67
2022/08/23 12:45:05;;;;;;;5.33;2.20;;;28.50;1.00;;;;;;5101011;28;20462;-68
2022/08/23 12:47:32;;;;;;;4.73;2.60;;;28.40;1.00;;;;;;5102278;28;20482;-67
2022/08/23 12:50:01;;;;;;;4.93;2.17;;;28.40;1.00;;;;;;5096828;28;20459;-68
2022/08/23 12:52:31;;;;;;;4.27;2.00;;;28.20;1.00;;;;;;5100987;28;20493;-67
2022/08/23 12:54:58;;;;;;;6.83;3.17;;;28.00;1.00;;;;;;5097659;28;20455;-67
2022/08/23 12:57:37;;;;;;;4.87;2.80;;;28.00;1.00;;;;;;5095285;28;20495;-67
2022/08/23 13:00:18;;;;;;;6.10;2.47;;;27.80;1.00;;;;;;5099809;28;20447;-67
2022/08/23 13:02:50;;;;;;;5.07;2.23;;;27.60;1.00;;;;;;5095987;28;21018;-67
2022/08/23 13:05:31;;;;;;;5.50;2.10;;;27.50;1.00;;;;;;5099007;28;20482;-67
2022/08/23 13:07:58;;;;;;;5.37;2.60;;;27.40;1.00;;;;;;5104425;28;20482;-67
2022/08/23 13:10:25;;;;;;;7.00;2.20;;;27.30;1.00;;;;;;5100385;28;22503;-67
2022/08/23 13:12:54;;;;;;;5.37;2.47;;;27.30;1.00;;;;;;5103737;28;20576;-67
2022/08/23 13:15:51;;;;;;;6.03;2.50;;;27.20;1.00;;;;;;5106163;27;20455;-67
2022/08/23 13:18:27;;;;;;;6.30;2.90;;;27.20;1.00;;;;;;5106418;27;20455;-67
2022/08/23 13:21:17;;;;;;;5.10;2.47;;;27.20;1.30;;;;;;5105510;28;20554;-67
2022/08/23 13:23:43;;;;;;;5.07;2.60;;;27.20;2.40;;;;;;5106243;28;20471;-67